Time;durP1;ratioP1;P1;durP2;ratioP2;P2;SDS_P1;SDS_P2;PMS_P1;PMS_P2;Temp;Humidity;BMP_temperature;BMP_pressure;BME280_temperature;BME280_humidity;BME280_pressure;Samples;Min_cycle;Max_cycle;Signal;HPM_P1;HPM_P2
2021/04/27 01:08:39;;;;;;;5.68;2.78;;;;;;;16.00;46.16;99348.34;5012148;28;20498;-73
2021/04/27 01:11:28;;;;;;;2.97;2.65;;;;;;;15.92;46.59;99350.44;5054291;28;20480;-74
2021/04/27 01:14:00;;;;;;;3.55;2.75;;;;;;;15.91;47.66;99349.66;5054765;28;20119;-74
2021/04/27 01:16:27;;;;;;;5.13;4.38;;;;;;;15.83;48.06;99348.16;5055442;28;20029;-74
2021/04/27 01:18:54;;;;;;;3.97;2.65;;;;;;;15.79;48.12;99363.44;5054079;28;20083;-74
2021/04/27 01:21:22;;;;;;;2.92;2.63;;;;;;;15.73;48.06;99354.69;5054113;28;20064;-74
2021/04/27 01:24:08;;;;;;;2.67;2.47;;;;;;;15.67;48.73;99357.16;5054604;28;20025;-74
2021/04/27 01:26:56;;;;;;;4.95;2.13;;;;;;;15.65;49.08;99348.34;5054555;28;20472;-74
2021/04/27 01:29:26;;;;;;;3.00;2.70;;;;;;;15.60;48.56;99351.56;5053976;28;20031;-74
2021/04/27 01:31:53;;;;;;;7.65;2.75;;;;;;;15.57;48.80;99357.22;5038163;28;20387;-74
2021/04/27 01:34:22;;;;;;;3.55;2.63;;;;;;;15.56;48.08;99359.25;5054361;28;20454;-74
2021/04/27 01:36:50;;;;;;;3.65;2.88;;;;;;;15.63;47.54;99364.78;5054367;28;20057;-74
2021/04/27 01:39:16;;;;;;;5.90;3.28;;;;;;;15.69;47.32;99360.31;5053827;28;20124;-74
2021/04/27 01:41:42;;;;;;;5.30;3.63;;;;;;;15.68;47.79;99352.34;5054049;28;20116;-74
2021/04/27 01:44:09;;;;;;;4.72;3.63;;;;;;;15.72;48.70;99347.50;5053746;28;20546;-74
2021/04/27 01:46:36;;;;;;;8.68;3.28;;;;;;;15.71;48.58;99343.88;5053974;28;20102;-74
2021/04/27 01:49:05;;;;;;;4.15;3.10;;;;;;;15.65;49.77;99342.72;5053609;28;20033;-74
2021/04/27 01:51:32;;;;;;;3.88;2.90;;;;;;;15.63;50.02;99339.56;5053814;28;20146;-74
2021/04/27 01:53:58;;;;;;;4.40;3.13;;;;;;;15.65;50.21;99337.13;5053896;28;20462;-74
2021/04/27 01:56:24;;;;;;;3.92;2.80;;;;;;;15.43;50.58;99327.31;5053843;28;20128;-73
2021/04/27 01:58:50;;;;;;;4.75;2.90;;;;;;;15.40;50.39;99325.38;5054729;28;20057;-73
2021/04/27 02:01:16;;;;;;;9.18;3.90;;;;;;;15.58;49.44;99306.34;5054051;28;20049;-73
2021/04/27 02:03:47;;;;;;;5.57;3.22;;;;;;;15.45;50.19;99310.91;5053027;28;20021;-74
2021/04/27 02:06:13;;;;;;;6.85;3.63;;;;;;;15.51;50.81;99309.22;5036532;28;20135;-73
2021/04/27 02:08:40;;;;;;;8.32;3.70;;;;;;;15.53;50.56;99312.41;5053051;28;20500;-73
2021/04/27 02:11:15;;;;;;;4.93;4.50;;;;;;;15.40;51.21;99300.16;5053513;28;20487;-73
2021/04/27 02:13:41;;;;;;;9.13;4.03;;;;;;;15.27;51.43;99304.69;5053182;28;20029;-73
2021/04/27 02:16:07;;;;;;;6.53;3.28;;;;;;;15.28;51.61;99297.84;5053055;28;20056;-73
2021/04/27 02:18:43;;;;;;;4.07;3.17;;;;;;;15.23;51.67;99298.31;5053082;28;20143;-73
2021/04/27 02:21:10;;;;;;;5.10;2.03;;;;;;;15.42;51.08;99287.28;5053111;28;20031;-73
2021/04/27 02:23:36;;;;;;;5.18;3.30;;;;;;;15.31;51.63;99299.84;5053604;28;20029;-73
2021/04/27 02:26:02;;;;;;;5.50;2.83;;;;;;;15.30;51.92;99292.66;5052943;28;20403;-73
2021/04/27 02:28:28;;;;;;;4.25;2.47;;;;;;;15.32;51.79;99293.81;5052928;28;20040;-73
2021/04/27 02:30:54;;;;;;;3.67;2.33;;;;;;;15.31;52.12;99305.44;5053121;28;20373;-73
2021/04/27 02:33:23;;;;;;;6.78;2.72;;;;;;;15.38;51.46;99299.75;5052833;28;20052;-73
2021/04/27 02:35:49;;;;;;;24.42;17.17;;;;;;;15.37;51.82;99303.78;5053283;28;20033;-73
2021/04/27 02:38:23;;;;;;;28.65;23.42;;;;;;;15.42;51.56;99289.31;5053642;28;20044;-73
2021/04/27 02:40:57;;;;;;;21.00;18.83;;;;;;;15.37;52.05;99293.34;5053157;28;20028;-74
2021/04/27 02:43:25;;;;;;;6.97;3.30;;;;;;;15.42;51.30;99283.69;5052631;28;20471;-74
2021/04/27 02:45:52;;;;;;;5.32;4.40;;;;;;;15.40;51.47;99297.34;5052870;28;20025;-74
2021/04/27 02:48:22;;;;;;;7.38;6.25;;;;;;;15.41;52.15;99301.75;5054091;28;20087;-74
2021/04/27 02:50:55;;;;;;;12.77;10.05;;;;;;;15.47;52.12;99291.66;5052514;28;20029;-73
2021/04/27 02:53:21;;;;;;;7.05;4.50;;;;;;;15.49;51.20;99289.22;5049496;28;20033;-73
2021/04/27 02:55:46;;;;;;;3.63;2.80;;;;;;;15.66;50.69;99287.47;5052698;28;20032;-73
2021/04/27 02:58:16;;;;;;;6.35;5.82;;;;;;;15.52;51.56;99291.19;5053221;28;20525;-73
2021/04/27 03:00:42;;;;;;;6.88;4.57;;;;;;;15.49;51.80;99288.44;5052578;28;20025;-74
2021/04/27 03:03:07;;;;;;;4.00;3.00;;;;;;;15.45;51.92;99285.69;5052324;28;20039;-74
2021/04/27 03:05:33;;;;;;;4.85;4.15;;;;;;;15.48;51.90;99307.25;5052321;28;20021;-74
2021/04/27 03:07:59;;;;;;;11.75;9.27;;;;;;;15.57;52.38;99293.53;5052316;28;20056;-73
2021/04/27 03:10:25;;;;;;;14.52;11.43;;;;;;;15.56;52.42;99288.34;5053827;28;20103;-74
2021/04/27 03:12:50;;;;;;;7.43;5.85;;;;;;;15.51;52.77;99281.19;5052161;28;20048;-74
2021/04/27 03:15:17;;;;;;;15.30;13.70;;;;;;;15.49;53.02;99278.00;5052494;28;20108;-73
2021/04/27 03:17:42;;;;;;;17.73;14.88;;;;;;;15.40;53.12;99286.94;5036263;28;20170;-73
2021/04/27 03:20:10;;;;;;;12.93;11.63;;;;;;;15.53;53.26;99300.41;5052466;28;20097;-73
2021/04/27 03:22:36;;;;;;;7.32;6.63;;;;;;;15.48;53.40;99284.81;5052163;28;20033;-73
2021/04/27 03:25:04;;;;;;;8.23;7.30;;;;;;;15.38;53.40;99278.13;5035626;28;20033;-74
2021/04/27 03:27:30;;;;;;;8.25;6.82;;;;;;;15.34;53.26;99277.38;5052091;28;20025;-74
2021/04/27 03:29:55;;;;;;;15.02;13.25;;;;;;;15.27;53.84;99255.03;5051805;28;20021;-73
2021/04/27 03:32:21;;;;;;;6.72;5.85;;;;;;;15.34;52.79;99242.94;5052062;28;20032;-73
2021/04/27 03:34:47;;;;;;;8.65;7.25;;;;;;;15.33;53.62;99235.75;5052309;28;20029;-73
2021/04/27 03:37:15;;;;;;;7.57;6.25;;;;;;;15.32;53.79;99245.38;5052011;28;20029;-74
2021/04/27 03:39:41;;;;;;;9.27;5.20;;;;;;;15.43;53.49;99251.66;5051974;28;20502;-74
2021/04/27 03:42:07;;;;;;;6.18;3.63;;;;;;;15.35;53.49;99255.75;5051998;28;20128;-74
2021/04/27 03:44:33;;;;;;;6.13;4.20;;;;;;;15.32;53.36;99243.38;5051945;28;20112;-74
2021/04/27 03:46:59;;;;;;;8.15;4.70;;;;;;;15.31;53.45;99246.59;5052433;28;20537;-74
2021/04/27 03:49:24;;;;;;;4.40;3.00;;;;;;;15.37;52.30;99248.50;5052181;28;20037;-74
2021/04/27 03:51:53;;;;;;;8.80;3.45;;;;;;;15.37;52.83;99242.91;5053156;28;20029;-74
2021/04/27 03:54:19;;;;;;;3.88;3.28;;;;;;;15.39;53.49;99248.09;5052293;28;20069;-74
2021/04/27 03:56:45;;;;;;;6.50;5.63;;;;;;;15.51;53.81;99258.78;5051607;28;20467;-74
2021/04/27 03:59:11;;;;;;;6.60;4.85;;;;;;;15.40;53.74;99270.09;5052541;28;20352;-74
2021/04/27 04:01:37;;;;;;;7.93;5.18;;;;;;;15.30;54.24;99259.03;5052096;28;20040;-73
2021/04/27 04:04:06;;;;;;;6.18;3.00;;;;;;;15.23;53.91;99259.06;5051830;28;20029;-74
2021/04/27 04:06:32;;;;;;;5.28;4.63;;;;;;;15.22;54.65;99263.09;5051754;28;20040;-73
2021/04/27 04:08:57;;;;;;;7.75;5.00;;;;;;;15.17;54.65;99258.72;5051411;28;20057;-73
2021/04/27 04:11:23;;;;;;;3.95;3.47;;;;;;;15.27;54.59;99255.03;5051721;28;20029;-73
2021/04/27 04:13:51;;;;;;;6.22;2.80;;;;;;;15.30;54.77;99259.03;5052026;28;20116;-73
2021/04/27 04:16:17;;;;;;;5.32;3.30;;;;;;;15.29;55.31;99266.63;5052251;28;20056;-73
2021/04/27 04:18:43;;;;;;;4.28;2.80;;;;;;;15.18;55.36;99269.53;5035230;28;20454;-73
2021/04/27 04:21:08;;;;;;;4.20;3.00;;;;;;;15.06;55.30;99270.06;5051812;28;20033;-73
2021/04/27 04:23:34;;;;;;;3.90;2.40;;;;;;;15.05;55.64;99265.66;5051652;28;20124;-73
2021/04/27 04:25:59;;;;;;;3.63;2.30;;;;;;;15.03;55.64;99256.91;5054318;28;20086;-73
2021/04/27 04:28:25;;;;;;;5.47;2.90;;;;;;;15.05;55.55;99262.88;5055203;28;20040;-73
2021/04/27 04:30:51;;;;;;;6.70;2.97;;;;;;;15.05;54.97;99260.06;5055691;28;20025;-73
2021/04/27 04:33:18;;;;;;;4.88;2.63;;;;;;;15.06;55.41;99267.25;5055362;28;20361;-73
2021/04/27 04:35:44;;;;;;;4.05;2.55;;;;;;;15.28;54.74;99267.81;5056266;28;20025;-73
2021/04/27 04:38:10;;;;;;;4.32;2.78;;;;;;;15.34;54.55;99276.56;5055358;28;20036;-73
2021/04/27 04:40:36;;;;;;;13.70;3.05;;;;;;;15.41;54.30;99282.91;5055064;28;20025;-73
2021/04/27 04:43:02;;;;;;;13.90;3.13;;;;;;;15.44;54.18;99281.25;5055250;28;20044;-73
2021/04/27 04:45:27;;;;;;;9.65;2.95;;;;;;;15.51;53.96;99275.59;5054948;28;20033;-74
2021/04/27 04:47:53;;;;;;;3.15;2.70;;;;;;;15.63;52.92;99283.47;5055079;28;20036;-74
2021/04/27 04:50:20;;;;;;;7.30;2.90;;;;;;;15.75;53.13;99292.56;5054690;28;20060;-73
2021/04/27 04:52:46;;;;;;;4.85;2.42;;;;;;;15.83;52.95;99288.47;5056192;28;20025;-73
2021/04/27 04:55:13;;;;;;;4.78;2.58;;;;;;;15.86;52.94;99282.00;5054498;28;20074;-74
2021/04/27 04:57:39;;;;;;;6.10;2.60;;;;;;;16.02;52.41;99296.22;5054554;28;20029;-73
2021/04/27 05:00:10;;;;;;;4.25;2.67;;;;;;;16.09;52.25;99298.94;5055048;28;20036;-73
2021/04/27 05:02:36;;;;;;;6.70;2.85;;;;;;;16.38;51.62;99304.13;5054374;28;20029;-73
2021/04/27 05:05:02;;;;;;;4.60;2.22;;;;;;;16.66;50.35;99312.13;5055223;28;20039;-73
2021/04/27 05:07:28;;;;;;;4.28;2.38;;;;;;;16.62;51.06;99314.22;5037740;28;20160;-73
2021/04/27 05:09:54;;;;;;;3.75;2.25;;;;;;;16.62;50.81;99304.97;5054322;28;20029;-73
2021/04/27 05:12:22;;;;;;;5.30;3.38;;;;;;;16.70;50.83;99300.84;5054194;28;20090;-73
2021/04/27 05:14:48;;;;;;;7.20;3.30;;;;;;;17.22;49.65;99309.63;5054089;28;20025;-74
2021/04/27 05:17:16;;;;;;;4.65;2.67;;;;;;;17.61;49.05;99321.34;5054155;28;20083;-74
2021/04/27 05:19:42;;;;;;;5.57;2.15;;;;;;;17.91;47.74;99318.38;5038226;28;20029;-74
2021/04/27 05:22:09;;;;;;;3.13;2.03;;;;;;;17.94;47.54;99325.13;5055872;28;20108;-74
2021/04/27 05:24:36;;;;;;;4.63;2.17;;;;;;;18.80;45.63;99333.31;5053943;28;20120;-72
2021/04/27 05:27:04;;;;;;;10.10;4.90;;;;;;;19.53;43.82;99327.41;5053958;28;20037;-73
2021/04/27 05:29:29;;;;;;;5.85;2.47;;;;;;;20.09;42.72;99324.25;5054053;28;20036;-73
2021/04/27 05:31:55;;;;;;;5.05;3.33;;;;;;;20.58;42.08;99326.81;5054097;28;20028;-73
2021/04/27 05:34:20;;;;;;;5.47;2.78;;;;;;;21.26;40.23;99321.78;5053708;28;20025;-73
2021/04/27 05:36:46;;;;;;;6.22;2.58;;;;;;;21.82;38.43;99326.66;5052897;28;20025;-73
2021/04/27 05:39:12;;;;;;;7.05;2.47;;;;;;;22.28;36.87;99318.50;5053724;28;20025;-73
2021/04/27 05:41:38;;;;;;;6.72;2.20;;;;;;;22.16;36.28;99312.47;5054154;28;20036;-73
2021/04/27 05:44:04;;;;;;;3.65;2.97;;;;;;;22.85;35.57;99316.22;5054099;28;20329;-73
2021/04/27 05:46:32;;;;;;;3.70;2.20;;;;;;;23.34;34.86;99319.06;5053468;28;20128;-73
2021/04/27 05:48:58;;;;;;;2.92;2.63;;;;;;;23.21;33.87;99318.41;5054021;28;20037;-73
2021/04/27 05:51:23;;;;;;;3.45;2.13;;;;;;;22.72;34.17;99314.31;5053370;28;20503;-73
2021/04/27 05:53:49;;;;;;;4.43;2.40;;;;;;;22.42;35.07;99315.88;5053320;28;20025;-73
2021/04/27 05:56:15;;;;;;;6.18;2.38;;;;;;;22.80;33.73;99314.00;5053320;28;20033;-73
2021/04/27 05:58:40;;;;;;;2.40;2.05;;;;;;;22.26;35.22;99321.78;5053572;28;20406;-72
2021/04/27 06:01:06;;;;;;;5.10;2.72;;;;;;;22.47;35.55;99315.28;5053166;28;20055;-72
2021/04/27 06:03:32;;;;;;;3.00;2.63;;;;;;;22.40;35.04;99315.56;5053734;28;20079;-72
2021/04/27 06:06:00;;;;;;;5.30;2.10;;;;;;;22.42;35.20;99309.44;5052779;28;20597;-72
2021/04/27 06:08:25;;;;;;;3.63;2.33;;;;;;;22.88;34.21;99316.13;5052930;28;20071;-72
2021/04/27 06:10:51;;;;;;;5.97;2.75;;;;;;;22.73;35.51;99317.91;5053271;28;20475;-73
2021/04/27 06:13:16;;;;;;;6.57;2.97;;;;;;;22.71;35.76;99317.59;5053028;28;20098;-73
2021/04/27 06:15:42;;;;;;;6.38;3.85;;;;;;;22.32;37.39;99317.13;5053458;28;20025;-73
2021/04/27 06:18:07;;;;;;;6.95;3.78;;;;;;;22.02;37.61;99317.84;5052681;28;20098;-72
2021/04/27 06:20:33;;;;;;;10.02;4.20;;;;;;;21.74;38.10;99325.38;5052762;28;20029;-73
2021/04/27 06:22:59;;;;;;;5.22;4.43;;;;;;;21.43;38.38;99304.19;5052599;28;20021;-73
2021/04/27 06:25:24;;;;;;;6.93;3.47;;;;;;;20.89;39.10;99304.41;5052453;28;20025;-73
2021/04/27 06:27:50;;;;;;;6.13;3.30;;;;;;;20.80;38.30;99304.31;5052651;28;20063;-73
2021/04/27 06:30:16;;;;;;;6.60;4.05;;;;;;;21.43;37.31;99309.84;5052655;28;20082;-73
2021/04/27 06:32:42;;;;;;;4.63;3.42;;;;;;;21.76;36.84;99305.88;5053075;28;20052;-72
2021/04/27 06:35:08;;;;;;;5.38;3.45;;;;;;;22.64;34.88;99306.56;5052437;28;20467;-73
2021/04/27 06:37:34;;;;;;;3.42;2.80;;;;;;;23.34;33.54;99310.53;5052780;28;20131;-73
2021/04/27 06:40:01;;;;;;;4.57;3.05;;;;;;;23.64;33.13;99297.47;5052466;28;20548;-72
2021/04/27 06:42:26;;;;;;;6.30;3.47;;;;;;;23.92;32.42;99309.63;5052549;28;20036;-73
2021/04/27 06:44:52;;;;;;;6.80;3.28;;;;;;;24.51;31.19;99307.28;5052268;28;20025;-73
2021/04/27 06:47:18;;;;;;;6.13;3.17;;;;;;;25.25;29.54;99301.25;5052714;28;20088;-73
2021/04/27 06:49:43;;;;;;;8.65;3.42;;;;;;;24.84;30.47;99312.19;5052288;28;20333;-72
2021/04/27 06:52:09;;;;;;;4.63;2.92;;;;;;;24.84;30.40;99303.66;5052515;28;20036;-72
2021/04/27 06:54:36;;;;;;;5.32;3.10;;;;;;;23.76;32.23;99307.91;5052260;28;20035;-72
2021/04/27 06:57:02;;;;;;;4.07;3.03;;;;;;;23.23;33.49;99296.03;5052247;28;20044;-73
2021/04/27 06:59:31;;;;;;;4.95;2.97;;;;;;;22.76;34.50;99297.16;5052955;28;20390;-73
2021/04/27 07:02:01;;;;;;;7.32;2.90;;;;;;;23.32;33.71;99296.03;5052202;28;20025;-73
2021/04/27 07:04:29;;;;;;;7.50;2.92;;;;;;;24.04;32.51;99283.06;5051997;28;20049;-73
2021/04/27 07:06:54;;;;;;;6.50;3.58;;;;;;;24.46;31.88;99288.03;5035516;28;20037;-73
2021/04/27 07:09:20;;;;;;;7.07;3.13;;;;;;;24.19;32.30;99282.41;5051586;28;20056;-72
2021/04/27 07:11:46;;;;;;;5.03;3.03;;;;;;;24.35;32.26;99275.59;5052642;28;20025;-73
2021/04/27 07:14:15;;;;;;;3.35;2.58;;;;;;;23.85;32.41;99292.88;5052060;28;20028;-73
2021/04/27 07:16:41;;;;;;;6.40;2.92;;;;;;;24.47;31.49;99306.66;5051821;28;20111;-73
2021/04/27 07:19:06;;;;;;;7.15;3.03;;;;;;;24.81;31.18;99311.09;5051977;28;20095;-73
2021/04/27 07:21:33;;;;;;;6.88;2.78;;;;;;;24.76;31.24;99300.38;5052625;28;20028;-74
2021/04/27 07:23:59;;;;;;;3.90;2.60;;;;;;;24.65;31.65;99300.09;5052248;28;20107;-73
2021/04/27 07:26:25;;;;;;;4.85;2.85;;;;;;;24.93;31.08;99286.56;5052723;28;20452;-73
2021/04/27 07:28:51;;;;;;;5.65;2.95;;;;;;;25.15;31.31;99305.44;5052069;28;20456;-73
2021/04/27 07:31:16;;;;;;;3.53;2.45;;;;;;;25.10;30.89;99301.19;5052007;28;20070;-73
2021/04/27 07:33:43;;;;;;;7.50;2.92;;;;;;;24.54;31.88;99308.38;5053917;28;20055;-73
2021/04/27 07:36:08;;;;;;;6.20;2.65;;;;;;;24.70;31.64;99310.84;5051792;28;20115;-73
2021/04/27 07:38:35;;;;;;;5.43;3.10;;;;;;;25.49;30.70;99313.38;5052210;28;20033;-73
2021/04/27 07:41:01;;;;;;;9.05;2.60;;;;;;;26.04;30.10;99315.78;5051660;28;20082;-74
2021/04/27 07:43:27;;;;;;;3.63;2.50;;;;;;;26.48;29.34;99319.97;5051899;28;20123;-74
2021/04/27 07:45:52;;;;;;;3.85;2.35;;;;;;;26.87;27.95;99323.41;5051831;28;20036;-74
2021/04/27 07:48:18;;;;;;;12.15;3.72;;;;;;;27.56;26.95;99321.00;5051441;28;20048;-74
2021/04/27 07:50:43;;;;;;;2.20;2.00;;;;;;;27.74;26.57;99328.53;5051684;28;20044;-73
2021/04/27 07:53:09;;;;;;;5.57;2.35;;;;;;;26.68;27.81;99328.56;5052072;28;20037;-74
2021/04/27 07:55:35;;;;;;;6.95;2.53;;;;;;;27.56;26.86;99326.72;5051533;28;20021;-74
2021/04/27 07:58:00;;;;;;;8.15;2.50;;;;;;;26.73;27.25;99325.00;5051597;28;20024;-74
2021/04/27 08:00:26;;;;;;;4.70;2.72;;;;;;;26.58;27.84;99330.75;5053117;28;20029;-73
2021/04/27 08:02:52;;;;;;;6.45;2.40;;;;;;;26.90;27.77;99323.22;5055526;28;20029;-73
2021/04/27 08:05:22;;;;;;;4.05;1.98;;;;;;;26.08;28.11;99327.78;5055777;28;20028;-73
2021/04/27 08:07:48;;;;;;;4.35;2.03;;;;;;;25.16;29.28;99318.38;5056536;28;20061;-73
2021/04/27 08:10:15;;;;;;;5.95;2.40;;;;;;;24.94;30.00;99327.97;5056169;28;20037;-74
2021/04/27 08:12:43;;;;;;;5.75;2.05;;;;;;;24.59;31.13;99326.84;5055901;28;20028;-73
2021/04/27 08:15:11;;;;;;;3.50;2.42;;;;;;;24.93;31.30;99319.88;5055809;28;20029;-73
2021/04/27 08:17:37;;;;;;;8.45;2.47;;;;;;;25.00;30.95;99314.63;5055474;28;20498;-73
2021/04/27 08:20:05;;;;;;;7.10;2.17;;;;;;;25.38;30.23;99324.53;5055161;28;20064;-73
2021/04/27 08:22:31;;;;;;;5.30;2.28;;;;;;;25.97;29.15;99327.56;5056879;28;20468;-73
2021/04/27 08:24:57;;;;;;;8.85;2.15;;;;;;;26.12;29.20;99334.06;5055039;28;20064;-72
2021/04/27 08:27:23;;;;;;;5.15;2.47;;;;;;;26.19;29.07;99334.97;5055311;28;20029;-73
2021/04/27 08:29:48;;;;;;;10.40;2.10;;;;;;;26.84;29.17;99341.53;5055263;28;20036;-74
2021/04/27 08:32:14;;;;;;;5.82;2.22;;;;;;;26.60;29.43;99333.91;5055091;28;20478;-73
2021/04/27 08:34:40;;;;;;;4.72;3.17;;;;;;;26.45;29.30;99344.53;5054357;28;20106;-73
2021/04/27 08:37:06;;;;;;;4.10;2.10;;;;;;;27.36;28.41;99341.78;5054755;28;20021;-73
2021/04/27 08:39:32;;;;;;;4.45;2.10;;;;;;;27.99;27.75;99352.72;5055048;28;20369;-73
2021/04/27 08:41:58;;;;;;;5.63;2.20;;;;;;;28.02;28.40;99341.06;5054945;28;20036;-73
2021/04/27 08:44:23;;;;;;;8.55;2.53;;;;;;;27.79;29.23;99350.66;5055526;28;20470;-73
2021/04/27 08:46:49;;;;;;;10.05;3.72;;;;;;;27.48;30.38;99354.16;5054857;28;20025;-73
2021/04/27 08:49:15;;;;;;;6.20;2.47;;;;;;;26.93;31.09;99364.25;5055063;28;20033;-73
2021/04/27 08:51:41;;;;;;;6.47;2.30;;;;;;;26.68;31.46;99345.69;5055700;28;20055;-74
2021/04/27 08:54:07;;;;;;;3.20;1.92;;;;;;;26.92;31.56;99351.25;5055568;28;20047;-73
2021/04/27 08:56:33;;;;;;;4.97;2.42;;;;;;;27.20;31.17;99351.69;5054759;28;20025;-73
2021/04/27 08:58:59;;;;;;;8.13;2.33;;;;;;;28.20;29.57;99352.16;5054409;28;20434;-73
2021/04/27 09:01:28;;;;;;;4.53;2.20;;;;;;;28.57;29.28;99367.88;5054328;28;20025;-73
2021/04/27 09:03:54;;;;;;;10.20;3.20;;;;;;;28.80;29.26;99369.63;5054806;28;20472;-73
2021/04/27 09:06:22;;;;;;;4.13;2.20;;;;;;;28.70;29.41;99359.66;5054668;28;20048;-73
2021/04/27 09:08:48;;;;;;;10.95;3.08;;;;;;;29.00;28.82;99371.63;5053978;28;20510;-72
2021/04/27 09:11:47;;;;;;;10.32;2.53;;;;;;;29.07;29.28;99361.78;5037501;28;20033;-73
2021/04/27 09:14:20;;;;;;;8.55;2.45;;;;;;;27.67;30.74;99361.16;5038936;28;20045;-73
2021/04/27 09:16:46;;;;;;;8.20;3.03;;;;;;;26.65;31.67;99369.50;5054363;28;20025;-74
2021/04/27 09:19:30;;;;;;;7.15;2.33;;;;;;;26.64;31.90;99363.03;5054631;28;20135;-73
2021/04/27 09:22:26;;;;;;;9.55;3.08;;;;;;;26.06;34.42;99367.41;5038350;28;20371;-73
2021/04/27 09:24:54;;;;;;;8.02;2.50;;;;;;;26.18;34.85;99376.16;5050014;28;20080;-72
2021/04/27 09:27:30;;;;;;;5.65;2.72;;;;;;;26.48;34.29;99369.22;5055069;28;20025;-73
2021/04/27 09:29:58;;;;;;;13.63;3.00;;;;;;;26.51;34.55;99364.59;5054317;28;20035;-73
2021/04/27 09:32:37;;;;;;;11.90;2.83;;;;;;;26.18;35.20;99367.59;5053881;28;20116;-73
2021/04/27 09:35:25;;;;;;;8.52;3.15;;;;;;;26.47;35.26;99353.38;5053767;28;20108;-73
2021/04/27 09:38:10;;;;;;;12.60;3.10;;;;;;;25.66;37.05;99365.00;5054127;28;20036;-73
2021/04/27 09:40:48;;;;;;;13.52;3.58;;;;;;;25.89;36.69;99362.63;5053742;28;20123;-73
2021/04/27 09:43:18;;;;;;;10.30;2.75;;;;;;;25.79;36.86;99362.72;5053995;28;20037;-73
2021/04/27 09:45:46;;;;;;;12.18;3.42;;;;;;;25.87;36.85;99340.31;5054015;28;20025;-73
2021/04/27 09:48:13;;;;;;;9.77;3.33;;;;;;;25.79;36.56;99339.16;5053608;28;20123;-73
2021/04/27 09:50:41;;;;;;;8.10;2.83;;;;;;;25.67;37.45;99348.69;5054069;28;20345;-73
2021/04/27 09:53:06;;;;;;;8.02;2.65;;;;;;;25.95;37.05;99347.22;5053806;28;20025;-72
2021/04/27 09:55:34;;;;;;;12.05;3.10;;;;;;;26.24;36.37;99340.75;5053571;28;20461;-73
2021/04/27 09:58:01;;;;;;;9.43;3.50;;;;;;;26.26;36.68;99331.72;5053718;28;20418;-73
2021/04/27 10:00:31;;;;;;;13.23;3.15;;;;;;;25.94;36.69;99337.13;5053007;28;20099;-73
2021/04/27 10:03:11;;;;;;;18.08;4.40;;;;;;;25.92;36.87;99325.41;5053789;28;20175;-73
2021/04/27 10:05:41;;;;;;;9.52;3.08;;;;;;;25.01;38.65;99332.50;5036875;28;20033;-72
2021/04/27 10:08:10;;;;;;;13.65;3.70;;;;;;;25.33;37.99;99326.00;5053051;28;20452;-73
2021/04/27 10:10:38;;;;;;;12.75;3.25;;;;;;;25.31;38.41;99313.53;5053632;28;20035;-73
2021/04/27 10:13:08;;;;;;;11.30;4.32;;;;;;;26.25;36.41;99313.03;5053226;28;20091;-73
2021/04/27 10:15:34;;;;;;;9.57;3.22;;;;;;;25.91;36.91;99306.72;5052786;28;20027;-74
2021/04/27 10:18:00;;;;;;;9.95;3.00;;;;;;;25.56;36.85;99321.56;5052928;28;20025;-73
2021/04/27 10:20:29;;;;;;;8.07;3.08;;;;;;;26.30;36.28;99306.66;5054447;28;20021;-73
2021/04/27 10:22:57;;;;;;;15.13;4.10;;;;;;;25.57;36.99;99314.59;5052299;28;20085;-73
2021/04/27 10:29:05;;;;;;;13.55;3.55;;;;;;;25.69;37.22;99283.50;5054078;28;20459;-73
2021/04/27 10:31:42;;;;;;;11.43;2.90;;;;;;;26.11;36.57;99309.69;5052684;28;20557;-73
2021/04/27 10:34:11;;;;;;;13.43;3.25;;;;;;;26.04;36.77;99304.38;5053707;28;20037;-73
2021/04/27 10:36:57;;;;;;;10.45;2.92;;;;;;;25.74;37.32;99297.06;5054599;28;20036;-72
2021/04/27 10:39:47;;;;;;;13.85;4.03;;;;;;;25.35;38.21;99299.88;5051759;28;20033;-73
2021/04/27 10:42:30;;;;;;;7.75;3.20;;;;;;;25.39;38.25;99306.19;5052723;28;20088;-73
2021/04/27 10:45:02;;;;;;;8.52;3.25;;;;;;;25.80;37.36;99306.53;5052560;28;20029;-73
2021/04/27 10:47:36;;;;;;;16.97;3.67;;;;;;;25.77;37.58;99299.72;5036356;28;20056;-73
2021/04/27 10:50:01;;;;;;;9.90;3.25;;;;;;;25.94;37.51;99293.56;5052387;28;20460;-73
2021/04/27 10:52:35;;;;;;;13.23;3.38;;;;;;;26.12;37.33;99291.31;5052207;28;20036;-73
2021/04/27 10:55:30;;;;;;;12.30;4.00;;;;;;;25.97;37.68;99299.06;5053390;28;20090;-73
2021/04/27 10:58:02;;;;;;;12.45;4.75;;;;;;;25.30;38.49;99287.13;5052864;28;20193;-73
2021/04/27 11:00:40;;;;;;;8.43;2.80;;;;;;;24.55;40.52;99290.03;5052248;28;20099;-73
2021/04/27 11:03:17;;;;;;;9.00;3.38;;;;;;;25.40;38.73;99284.97;5052342;28;20166;-73
2021/04/27 11:06:13;;;;;;;11.05;3.08;;;;;;;24.48;40.93;99288.34;5052257;28;20121;-73
2021/04/27 11:08:49;;;;;;;7.63;2.85;;;;;;;25.25;39.31;99284.16;5049881;28;20041;-73
2021/04/27 11:11:23;;;;;;;10.77;3.63;;;;;;;25.25;38.51;99275.63;5052512;28;20031;-74
2021/04/27 11:13:50;;;;;;;7.22;2.90;;;;;;;25.30;39.20;99266.38;5049246;28;20036;-73
2021/04/27 11:16:36;;;;;;;6.57;2.80;;;;;;;25.30;38.97;99258.66;5052339;28;20024;-73
2021/04/27 11:19:23;;;;;;;10.77;3.50;;;;;;;25.36;38.44;99261.63;5051466;28;20040;-73
2021/04/27 11:21:54;;;;;;;11.75;2.80;;;;;;;25.85;37.76;99263.09;5052153;28;20037;-73
2021/04/27 11:24:38;;;;;;;9.27;2.70;;;;;;;25.29;37.40;99267.66;5052133;28;20027;-73
2021/04/27 11:27:06;;;;;;;9.43;3.13;;;;;;;25.38;37.58;99264.75;5052058;28;20508;-73
2021/04/27 11:29:34;;;;;;;11.25;3.03;;;;;;;25.93;36.14;99264.28;5052775;28;20044;-73
2021/04/27 11:32:15;;;;;;;10.20;2.88;;;;;;;26.44;35.10;99263.09;5035517;28;20032;-73
2021/04/27 11:34:51;;;;;;;7.65;2.45;;;;;;;26.66;34.59;99261.88;5055126;28;20103;-73
2021/04/27 11:37:19;;;;;;;9.30;2.60;;;;;;;26.17;35.16;99266.25;5056431;28;20037;-73
2021/04/27 11:39:45;;;;;;;11.25;2.55;;;;;;;26.12;35.54;99262.81;5056404;28;20083;-73
2021/04/27 11:42:11;;;;;;;10.18;2.78;;;;;;;26.41;34.35;99264.06;5056066;28;20431;-73
2021/04/27 11:44:41;;;;;;;13.77;2.92;;;;;;;26.26;35.42;99257.56;5056572;28;20352;-73
2021/04/27 11:47:17;;;;;;;9.27;2.80;;;;;;;25.92;35.38;99262.72;5057480;28;20032;-73
2021/04/27 11:49:53;;;;;;;6.40;2.78;;;;;;;25.91;35.74;99275.38;5056641;28;20055;-73
2021/04/27 11:52:38;;;;;;;8.25;2.40;;;;;;;25.37;36.17;99251.81;5056313;28;20090;-73
2021/04/27 11:55:10;;;;;;;11.27;2.88;;;;;;;25.00;37.63;99268.31;5056344;28;20114;-73
2021/04/27 11:57:41;;;;;;;11.65;3.05;;;;;;;24.97;36.53;99258.69;5055606;28;20028;-73
2021/04/27 12:00:07;;;;;;;7.32;2.63;;;;;;;24.35;37.56;99252.84;5056106;28;20116;-73
2021/04/27 12:02:33;;;;;;;7.40;2.83;;;;;;;23.81;38.90;99263.88;5055373;28;20035;-73
2021/04/27 12:04:59;;;;;;;9.98;2.45;;;;;;;23.50;39.97;99258.34;5055411;28;20029;-73
2021/04/27 12:07:29;;;;;;;11.27;3.05;;;;;;;23.30;40.74;99275.84;5055194;28;20033;-73
2021/04/27 12:09:57;;;;;;;7.32;2.40;;;;;;;23.26;40.30;99261.03;5055340;28;20025;-73
2021/04/27 12:12:26;;;;;;;10.30;3.75;;;;;;;23.69;41.00;99262.75;5055729;28;20083;-73
2021/04/27 12:14:54;;;;;;;9.57;3.35;;;;;;;23.78;42.78;99259.13;5056034;28;20364;-73
2021/04/27 12:17:33;;;;;;;13.27;3.25;;;;;;;24.35;42.05;99259.34;5038931;28;20044;-72
2021/04/27 12:20:16;;;;;;;15.80;4.28;;;;;;;24.23;42.44;99265.97;5055810;28;20025;-72
2021/04/27 12:22:54;;;;;;;11.60;3.47;;;;;;;24.05;43.29;99270.44;5055248;28;20057;-73
2021/04/27 12:25:25;;;;;;;12.63;3.28;;;;;;;24.16;43.59;99269.94;5055645;28;20039;-73
2021/04/27 12:28:06;;;;;;;15.65;4.20;;;;;;;23.75;44.31;99263.69;5054786;28;20068;-73
2021/04/27 12:30:35;;;;;;;9.63;3.78;;;;;;;23.94;44.52;99264.47;5055083;28;20032;-73
2021/04/27 12:33:10;;;;;;;9.50;4.05;;;;;;;23.79;44.88;99257.88;5055560;28;20033;-74
2021/04/27 12:35:38;;;;;;;15.13;4.05;;;;;;;23.37;45.46;99266.22;5054927;28;20060;-73
2021/04/27 12:38:05;;;;;;;14.05;4.13;;;;;;;23.36;45.66;99259.75;5056585;28;20492;-72
2021/04/27 12:40:45;;;;;;;12.48;3.72;;;;;;;23.05;45.95;99268.41;5054876;28;20056;-72
2021/04/27 12:43:12;;;;;;;12.13;3.10;;;;;;;22.93;46.24;99264.44;5055906;28;20036;-73
2021/04/27 12:45:58;;;;;;;12.65;3.67;;;;;;;22.94;46.51;99251.84;5055421;28;20376;-72
2021/04/27 12:48:26;;;;;;;12.75;3.33;;;;;;;22.99;45.78;99242.72;5056062;28;20059;-73
2021/04/27 12:50:57;;;;;;;14.98;4.18;;;;;;;22.85;46.86;99271.66;5055502;28;20029;-73